createdAt,value
2023-02-26T00:00:46.624Z,995.40
2023-02-26T00:01:46.720Z,995.35
2023-02-26T00:02:46.581Z,995.31
2023-02-26T00:03:46.564Z,995.36
2023-02-26T00:04:46.593Z,995.45
2023-02-26T00:05:46.546Z,995.39
2023-02-26T00:06:46.575Z,995.32
2023-02-26T00:07:46.552Z,995.40
2023-02-26T00:08:46.520Z,995.41
2023-02-26T00:09:46.517Z,995.44
2023-02-26T00:10:46.500Z,995.39
2023-02-26T00:11:46.471Z,995.44
2023-02-26T00:12:46.528Z,995.43
2023-02-26T00:13:46.454Z,995.44
2023-02-26T00:14:46.456Z,995.47
2023-02-26T00:15:46.441Z,995.46
2023-02-26T00:16:46.460Z,995.48
2023-02-26T00:17:46.432Z,995.46
2023-02-26T00:18:46.424Z,995.47
2023-02-26T00:19:46.415Z,995.57
2023-02-26T00:20:46.381Z,995.52
2023-02-26T00:21:46.370Z,995.52
2023-02-26T00:22:46.362Z,995.54
2023-02-26T00:23:46.368Z,995.51
2023-02-26T00:24:46.349Z,995.54
2023-02-26T00:25:46.333Z,995.57
2023-02-26T00:26:46.301Z,995.54
2023-02-26T00:27:46.303Z,995.54
2023-02-26T00:28:46.305Z,995.51
2023-02-26T00:29:46.322Z,995.56
2023-02-26T00:30:46.316Z,995.60
2023-02-26T00:31:46.349Z,995.61
2023-02-26T00:32:46.279Z,995.63
2023-02-26T00:33:46.241Z,995.56
2023-02-26T00:34:46.241Z,995.58
2023-02-26T00:35:46.253Z,995.59
2023-02-26T00:36:46.212Z,995.64
2023-02-26T00:37:46.200Z,995.60
2023-02-26T00:38:46.185Z,995.64
2023-02-26T00:39:46.181Z,995.59
2023-02-26T00:40:46.152Z,995.62
2023-02-26T00:41:46.182Z,995.69
2023-02-26T00:42:46.156Z,995.62
2023-02-26T00:43:46.130Z,995.69
2023-02-26T00:44:46.113Z,995.70
2023-02-26T00:45:46.200Z,995.69
2023-02-26T00:46:46.119Z,995.75
2023-02-26T00:47:46.085Z,995.67
2023-02-26T00:48:46.065Z,995.67
2023-02-26T00:49:46.062Z,995.69
2023-02-26T00:50:46.045Z,995.68
2023-02-26T00:51:46.047Z,995.71
2023-02-26T00:52:46.046Z,995.68
2023-02-26T00:53:46.006Z,995.69
2023-02-26T00:54:46.006Z,995.73
2023-02-26T00:55:45.986Z,995.76
2023-02-26T00:56:45.975Z,995.71
2023-02-26T00:57:45.978Z,995.73
2023-02-26T00:58:46.704Z,995.79
2023-02-26T00:59:45.958Z,995.73
2023-02-26T01:00:45.939Z,995.72
2023-02-26T01:01:46.021Z,995.82
2023-02-26T01:02:45.914Z,995.81
2023-02-26T01:03:45.933Z,995.78
2023-02-26T01:04:45.942Z,995.82
2023-02-26T01:05:45.895Z,995.79
2023-02-26T01:06:45.888Z,995.87
2023-02-26T01:07:45.853Z,995.89
2023-02-26T01:08:45.845Z,995.85
2023-02-26T01:09:45.844Z,995.87
2023-02-26T01:10:45.850Z,995.89
2023-02-26T01:11:45.817Z,995.84
2023-02-26T01:12:45.844Z,995.90
2023-02-26T01:13:45.808Z,995.90
2023-02-26T01:14:45.784Z,995.86
2023-02-26T01:15:45.840Z,995.82
2023-02-26T01:16:45.749Z,995.79
2023-02-26T01:17:45.734Z,995.88
2023-02-26T01:18:45.860Z,995.87
2023-02-26T01:19:45.728Z,995.87
2023-02-26T01:20:45.707Z,995.92
2023-02-26T01:21:45.724Z,995.82
2023-02-26T01:22:45.712Z,995.95
2023-02-26T01:23:45.683Z,995.89
2023-02-26T01:24:45.658Z,995.86
2023-02-26T01:25:45.658Z,995.84
2023-02-26T01:26:45.664Z,995.93
2023-02-26T01:27:45.630Z,995.87
2023-02-26T01:28:45.613Z,995.94
2023-02-26T01:29:45.597Z,995.97
2023-02-26T01:30:45.672Z,995.93
2023-02-26T01:31:45.779Z,995.91
2023-02-26T01:32:45.663Z,995.93
2023-02-26T01:33:45.586Z,995.91
2023-02-26T01:34:45.552Z,995.95
2023-02-26T01:35:45.556Z,995.98
2023-02-26T01:36:45.530Z,995.96
2023-02-26T01:37:45.517Z,995.92
2023-02-26T01:38:45.720Z,996.03
2023-02-26T01:39:45.495Z,996.04
2023-02-26T01:40:45.506Z,996.02
2023-02-26T01:41:45.518Z,996.06
2023-02-26T01:42:45.478Z,996.03
2023-02-26T01:43:45.503Z,996.09
2023-02-26T01:44:45.430Z,996.06
2023-02-26T01:45:45.441Z,996.08
2023-02-26T01:46:45.487Z,996.13
2023-02-26T01:47:45.404Z,996.11
2023-02-26T01:48:45.431Z,996.18
2023-02-26T01:49:45.400Z,996.13
2023-02-26T01:50:45.370Z,996.14
2023-02-26T01:51:45.453Z,996.09
2023-02-26T01:52:45.383Z,996.10
2023-02-26T01:53:45.347Z,996.12
2023-02-26T01:54:45.353Z,996.17
2023-02-26T01:55:45.311Z,996.20
2023-02-26T01:56:45.321Z,996.22
2023-02-26T01:57:45.291Z,996.20
2023-02-26T01:58:45.287Z,996.19
2023-02-26T01:59:45.273Z,996.20
2023-02-26T02:00:45.349Z,996.28
2023-02-26T02:01:45.357Z,996.28
2023-02-26T02:02:45.431Z,996.24
2023-02-26T02:03:45.251Z,996.26
2023-02-26T02:04:45.214Z,996.26
2023-02-26T02:05:45.204Z,996.31
2023-02-26T02:06:45.241Z,996.24
2023-02-26T02:07:45.185Z,996.31
2023-02-26T02:08:45.186Z,996.31
2023-02-26T02:09:45.170Z,996.28
2023-02-26T02:10:45.162Z,996.31
2023-02-26T02:11:45.132Z,996.28
2023-02-26T02:12:45.164Z,996.29
2023-02-26T02:13:45.164Z,996.29
2023-02-26T02:14:45.121Z,996.28
2023-02-26T02:15:45.090Z,996.30
2023-02-26T02:16:45.157Z,996.35
2023-02-26T02:17:45.093Z,996.35
2023-02-26T02:18:45.089Z,996.32
2023-02-26T02:19:45.049Z,996.28
2023-02-26T02:20:45.040Z,996.23
2023-02-26T02:21:45.070Z,996.28
2023-02-26T02:22:45.007Z,996.27
2023-02-26T02:23:45.029Z,996.32
2023-02-26T02:24:44.987Z,996.31
2023-02-26T02:25:44.975Z,996.32
2023-02-26T02:26:44.983Z,996.33
2023-02-26T02:27:44.948Z,996.35
2023-02-26T02:28:44.947Z,996.29
2023-02-26T02:29:44.960Z,996.31
2023-02-26T02:30:44.926Z,996.32
2023-02-26T02:31:45.001Z,996.38
2023-02-26T02:32:44.954Z,996.31
2023-02-26T02:33:44.886Z,996.33
2023-02-26T02:34:44.877Z,996.31
2023-02-26T02:35:44.904Z,996.30
2023-02-26T02:36:44.848Z,996.25
2023-02-26T02:37:44.833Z,996.31
2023-02-26T02:38:44.831Z,996.34
2023-02-26T02:39:44.858Z,996.34
2023-02-26T02:40:44.818Z,996.33
2023-02-26T02:41:44.867Z,996.35
2023-02-26T02:42:44.786Z,996.35
2023-02-26T02:43:44.776Z,996.40
2023-02-26T02:44:44.757Z,996.35
2023-02-26T02:45:44.826Z,996.33
2023-02-26T02:46:44.772Z,996.39
2023-02-26T02:47:44.749Z,996.38
2023-02-26T02:48:44.724Z,996.38
2023-02-26T02:49:44.716Z,996.45
2023-02-26T02:50:44.698Z,996.39
2023-02-26T02:51:44.687Z,996.40
2023-02-26T02:52:44.797Z,996.34
2023-02-26T02:53:44.663Z,996.35
2023-02-26T02:54:44.663Z,996.44
2023-02-26T02:55:44.642Z,996.34
2023-02-26T02:56:44.624Z,996.43
2023-02-26T02:57:44.621Z,996.41
2023-02-26T02:58:44.634Z,996.43
2023-02-26T02:59:44.597Z,996.39
2023-02-26T03:00:44.607Z,996.46
2023-02-26T03:01:44.573Z,996.40
2023-02-26T03:02:44.591Z,996.41
2023-02-26T03:03:44.555Z,996.41
2023-02-26T03:04:44.608Z,996.36
2023-02-26T03:05:44.538Z,996.41
2023-02-26T03:06:44.520Z,996.45
2023-02-26T03:07:44.506Z,996.42
2023-02-26T03:08:44.496Z,996.50
2023-02-26T03:09:44.483Z,996.58
2023-02-26T03:10:44.564Z,996.58
2023-02-26T03:11:44.463Z,996.55
2023-02-26T03:12:44.452Z,996.56
2023-02-26T03:13:44.435Z,996.57
2023-02-26T03:14:44.427Z,996.63
2023-02-26T03:15:44.423Z,996.63
2023-02-26T03:16:44.442Z,996.64
2023-02-26T03:17:44.427Z,996.65
2023-02-26T03:18:44.394Z,996.65
2023-02-26T03:19:44.396Z,996.65
2023-02-26T03:20:44.361Z,996.73
2023-02-26T03:21:44.362Z,996.70
2023-02-26T03:22:44.361Z,996.73
2023-02-26T03:23:44.327Z,996.75
2023-02-26T03:24:44.308Z,996.75
2023-02-26T03:25:44.297Z,996.71
2023-02-26T03:26:44.311Z,996.70
2023-02-26T03:27:44.292Z,996.71
2023-02-26T03:28:44.289Z,996.75
2023-02-26T03:29:44.278Z,996.75
2023-02-26T03:30:44.293Z,996.75
2023-02-26T03:31:44.345Z,996.75
2023-02-26T03:32:44.226Z,996.76
2023-02-26T03:33:44.208Z,996.76
2023-02-26T03:34:44.235Z,996.76
2023-02-26T03:35:44.178Z,996.71
2023-02-26T03:36:44.170Z,996.77
2023-02-26T03:37:44.194Z,996.82
2023-02-26T03:38:44.170Z,996.79
2023-02-26T03:39:44.139Z,996.89
2023-02-26T03:40:44.154Z,996.90
2023-02-26T03:41:44.141Z,996.86
2023-02-26T03:42:44.102Z,996.96
2023-02-26T03:43:44.112Z,996.91
2023-02-26T03:44:44.118Z,996.96
2023-02-26T03:45:44.107Z,997.01
2023-02-26T03:46:44.086Z,997.03
2023-02-26T03:47:44.056Z,997.08
2023-02-26T03:48:44.060Z,997.09
2023-02-26T03:49:44.089Z,997.15
2023-02-26T03:50:44.034Z,997.09
2023-02-26T03:51:44.063Z,997.16
2023-02-26T03:52:43.995Z,997.16
2023-02-26T03:53:43.981Z,997.15
2023-02-26T03:54:43.965Z,997.11
2023-02-26T03:55:43.953Z,997.14
2023-02-26T03:56:43.977Z,997.13
2023-02-26T03:57:44.056Z,997.21
2023-02-26T03:58:43.926Z,997.16
2023-02-26T03:59:43.925Z,997.24
2023-02-26T04:00:43.901Z,997.19
2023-02-26T04:01:43.890Z,997.22
2023-02-26T04:02:43.884Z,997.23
2023-02-26T04:03:43.905Z,997.28
2023-02-26T04:04:43.862Z,997.27
2023-02-26T04:05:43.857Z,997.27
2023-02-26T04:06:43.821Z,997.28
2023-02-26T04:07:43.821Z,997.31
2023-02-26T04:08:43.810Z,997.37
2023-02-26T04:09:43.852Z,997.31
2023-02-26T04:10:43.789Z,997.33
2023-02-26T04:11:43.772Z,997.33
2023-02-26T04:12:43.752Z,997.32
2023-02-26T04:13:43.761Z,997.39
2023-02-26T04:14:43.745Z,997.33
2023-02-26T04:15:43.774Z,997.31
2023-02-26T04:16:43.762Z,997.37
2023-02-26T04:17:43.713Z,997.40
2023-02-26T04:18:43.693Z,997.35
2023-02-26T04:19:43.691Z,997.38
2023-02-26T04:20:43.723Z,997.42
2023-02-26T04:21:43.709Z,997.39
2023-02-26T04:22:43.643Z,997.42
2023-02-26T04:23:43.652Z,997.42
2023-02-26T04:24:43.623Z,997.42
2023-02-26T04:25:43.622Z,997.42
2023-02-26T04:26:43.895Z,997.44
2023-02-26T04:27:43.611Z,997.50
2023-02-26T04:28:43.577Z,997.52
2023-02-26T04:29:43.562Z,997.52
2023-02-26T04:30:43.597Z,997.53
2023-02-26T04:31:43.753Z,997.53
2023-02-26T04:32:43.550Z,997.55
2023-02-26T04:33:43.520Z,997.57
2023-02-26T04:34:43.512Z,997.58
2023-02-26T04:35:43.571Z,997.57
2023-02-26T04:36:43.533Z,997.53
2023-02-26T04:37:43.468Z,997.55
2023-02-26T04:38:43.483Z,997.56
2023-02-26T04:39:43.469Z,997.55
2023-02-26T04:40:43.451Z,997.60
2023-02-26T04:41:43.430Z,997.58
2023-02-26T04:42:44.181Z,997.58
2023-02-26T04:43:43.417Z,997.58
2023-02-26T04:44:43.416Z,997.60
2023-02-26T04:45:43.378Z,997.64
2023-02-26T04:46:43.373Z,997.62
2023-02-26T04:47:43.360Z,997.65
2023-02-26T04:48:43.377Z,997.63
2023-02-26T04:49:43.343Z,997.63
2023-02-26T04:50:43.351Z,997.63
2023-02-26T04:51:43.305Z,997.69
2023-02-26T04:52:43.371Z,997.68
2023-02-26T04:53:43.291Z,997.71
2023-02-26T04:54:43.270Z,997.78
2023-02-26T04:55:43.307Z,997.86
2023-02-26T04:56:43.279Z,997.86
2023-02-26T04:57:43.238Z,997.87
2023-02-26T04:58:43.247Z,997.91
2023-02-26T04:59:43.226Z,997.89
2023-02-26T05:00:43.217Z,997.90
2023-02-26T05:01:43.243Z,997.94
2023-02-26T05:02:43.189Z,997.86
2023-02-26T05:03:43.200Z,997.93
2023-02-26T05:04:43.212Z,997.94
2023-02-26T05:05:43.161Z,997.94
2023-02-26T05:06:43.141Z,998.00
2023-02-26T05:07:43.161Z,998.02
2023-02-26T05:08:43.170Z,998.03
2023-02-26T05:09:43.101Z,998.03
2023-02-26T05:10:43.239Z,998.02
2023-02-26T05:11:43.084Z,998.01
2023-02-26T05:12:43.140Z,998.05
2023-02-26T05:13:43.069Z,998.07
2023-02-26T05:14:43.105Z,997.97
2023-02-26T05:15:43.114Z,998.06
2023-02-26T05:16:43.033Z,998.00
2023-02-26T05:17:43.088Z,998.02
2023-02-26T05:18:43.037Z,997.99
2023-02-26T05:19:42.989Z,998.08
2023-02-26T05:20:42.984Z,998.04
2023-02-26T05:21:42.987Z,998.03
2023-02-26T05:22:42.974Z,998.05
2023-02-26T05:23:42.955Z,998.03
2023-02-26T05:24:42.966Z,998.03
2023-02-26T05:25:42.929Z,998.01
2023-02-26T05:26:42.917Z,998.05
2023-02-26T05:27:42.965Z,998.01
2023-02-26T05:28:42.904Z,998.05
2023-02-26T05:29:42.915Z,998.02
2023-02-26T05:30:42.977Z,998.02
2023-02-26T05:31:42.982Z,998.01
2023-02-26T05:32:42.871Z,998.03
2023-02-26T05:33:42.853Z,997.98
2023-02-26T05:34:42.953Z,997.97
2023-02-26T05:35:42.837Z,998.05
2023-02-26T05:36:42.820Z,998.05
2023-02-26T05:37:42.795Z,998.12
2023-02-26T05:38:42.992Z,998.17
2023-02-26T05:39:42.770Z,998.21
2023-02-26T05:40:42.781Z,998.21
2023-02-26T05:41:42.796Z,998.20
2023-02-26T05:42:42.771Z,998.29
2023-02-26T05:43:42.716Z,998.27
2023-02-26T05:44:42.732Z,998.30
2023-02-26T05:45:42.773Z,998.33
2023-02-26T05:46:42.774Z,998.36
2023-02-26T05:47:42.756Z,998.31
2023-02-26T05:48:44.722Z,998.36
2023-02-26T05:49:42.699Z,998.40
2023-02-26T05:50:42.761Z,998.39
2023-02-26T05:51:42.633Z,998.39
2023-02-26T05:52:42.636Z,998.38
2023-02-26T05:53:42.671Z,998.37
2023-02-26T05:54:42.627Z,998.39
2023-02-26T05:55:42.592Z,998.44
2023-02-26T05:56:42.593Z,998.46
2023-02-26T05:57:42.564Z,998.45
2023-02-26T05:58:42.557Z,998.47
2023-02-26T05:59:42.743Z,998.47
2023-02-26T06:00:42.537Z,998.44
2023-02-26T06:01:42.546Z,998.47
2023-02-26T06:02:42.579Z,998.48
2023-02-26T06:03:42.586Z,998.55
2023-02-26T06:04:42.494Z,998.48
2023-02-26T06:05:42.477Z,998.50
2023-02-26T06:06:42.454Z,998.54
2023-02-26T06:07:42.453Z,998.51
2023-02-26T06:08:42.434Z,998.56
2023-02-26T06:09:42.446Z,998.66
2023-02-26T06:10:42.442Z,998.69
2023-02-26T06:11:42.401Z,998.74
2023-02-26T06:12:42.394Z,998.75
2023-02-26T06:13:42.459Z,998.76
2023-02-26T06:14:42.361Z,998.78
2023-02-26T06:15:42.361Z,998.73
2023-02-26T06:16:42.427Z,998.70
2023-02-26T06:17:42.344Z,998.73
2023-02-26T06:18:42.322Z,998.72
2023-02-26T06:19:42.311Z,998.75
2023-02-26T06:20:42.320Z,998.76
2023-02-26T06:21:42.288Z,998.78
2023-02-26T06:22:42.325Z,998.79
2023-02-26T06:23:42.263Z,998.71
2023-02-26T06:24:42.251Z,998.79
2023-02-26T06:25:42.327Z,998.86
2023-02-26T06:26:42.237Z,998.93
2023-02-26T06:27:42.302Z,998.92
2023-02-26T06:28:42.273Z,998.97
2023-02-26T06:29:42.203Z,999.01
2023-02-26T06:30:42.255Z,999.01
2023-02-26T06:31:42.275Z,999.07
2023-02-26T06:32:42.198Z,999.15
2023-02-26T06:33:42.160Z,999.18
2023-02-26T06:34:42.210Z,999.16
2023-02-26T06:35:42.134Z,999.18
2023-02-26T06:36:42.185Z,999.15
2023-02-26T06:37:42.174Z,999.15
2023-02-26T06:38:42.130Z,999.19
2023-02-26T06:39:42.142Z,999.24
2023-02-26T06:40:42.079Z,999.24
2023-02-26T06:41:42.076Z,999.25
2023-02-26T06:42:42.067Z,999.31
2023-02-26T06:43:42.059Z,999.31
2023-02-26T06:44:42.046Z,999.25
2023-02-26T06:45:42.074Z,999.24
2023-02-26T06:46:42.055Z,999.26
2023-02-26T06:47:42.017Z,999.30
2023-02-26T06:48:42.003Z,999.34
2023-02-26T06:49:42.017Z,999.34
2023-02-26T06:50:41.975Z,999.34
2023-02-26T06:51:41.989Z,999.35
2023-02-26T06:52:41.954Z,999.36
2023-02-26T06:53:41.944Z,999.37
2023-02-26T06:54:41.933Z,999.35
2023-02-26T06:55:41.941Z,999.40
2023-02-26T06:56:41.942Z,999.38
2023-02-26T06:57:41.896Z,999.38
2023-02-26T06:58:41.891Z,999.35
2023-02-26T06:59:41.889Z,999.38
2023-02-26T07:00:41.884Z,999.39
2023-02-26T07:01:41.877Z,999.31
2023-02-26T07:02:41.920Z,999.38
2023-02-26T07:03:41.863Z,999.37
2023-02-26T07:04:41.814Z,999.35
2023-02-26T07:05:41.802Z,999.40
2023-02-26T07:06:42.000Z,999.46
2023-02-26T07:07:41.810Z,999.44
2023-02-26T07:08:41.774Z,999.46
2023-02-26T07:09:41.816Z,999.49
2023-02-26T07:10:41.782Z,999.49
2023-02-26T07:11:41.764Z,999.58
2023-02-26T07:12:41.767Z,999.58
2023-02-26T07:13:41.738Z,999.60
2023-02-26T07:14:41.700Z,999.64
2023-02-26T07:15:41.692Z,999.63
2023-02-26T07:16:41.702Z,999.66
2023-02-26T07:17:41.753Z,999.65
2023-02-26T07:18:41.681Z,999.64
2023-02-26T07:19:41.641Z,999.70
2023-02-26T07:20:41.630Z,999.70
2023-02-26T07:21:41.645Z,999.68
2023-02-26T07:22:41.615Z,999.74
2023-02-26T07:23:41.639Z,999.78
2023-02-26T07:24:41.646Z,999.85
2023-02-26T07:25:41.571Z,999.85
2023-02-26T07:26:41.598Z,999.86
2023-02-26T07:27:43.713Z,999.85
2023-02-26T07:28:41.564Z,999.89
2023-02-26T07:29:41.553Z,999.92
2023-02-26T07:30:41.643Z,999.91
2023-02-26T07:31:41.756Z,999.94
2023-02-26T07:32:41.502Z,999.98
2023-02-26T07:33:41.495Z,999.99
2023-02-26T07:34:41.506Z,1000.07
2023-02-26T07:35:41.469Z,1000.04
2023-02-26T07:36:41.482Z,1000.01
2023-02-26T07:37:41.450Z,1000.04
2023-02-26T07:38:41.445Z,1000.11
2023-02-26T07:39:41.429Z,1000.17
2023-02-26T07:40:41.429Z,1000.13
2023-02-26T07:41:41.397Z,1000.13
2023-02-26T07:42:41.418Z,1000.09
2023-02-26T07:43:41.376Z,1000.18
2023-02-26T07:44:41.362Z,1000.27
2023-02-26T07:45:41.359Z,1000.26
2023-02-26T07:46:41.358Z,1000.25
2023-02-26T07:47:41.358Z,1000.36
2023-02-26T07:48:41.355Z,1000.40
2023-02-26T07:49:41.309Z,1000.35
2023-02-26T07:50:41.318Z,1000.42
2023-02-26T07:51:41.285Z,1000.44
2023-02-26T07:52:41.269Z,1000.45
2023-02-26T07:53:41.296Z,1000.41
2023-02-26T07:54:41.266Z,1000.51
2023-02-26T07:55:41.280Z,1000.55
2023-02-26T07:56:41.239Z,1000.43
2023-02-26T07:57:41.273Z,1000.57
2023-02-26T07:58:41.208Z,1000.47
2023-02-26T07:59:41.212Z,1000.48
2023-02-26T08:00:41.214Z,1000.40
2023-02-26T08:01:41.224Z,1000.52
2023-02-26T08:02:41.171Z,1000.41
2023-02-26T08:03:41.198Z,1000.46
2023-02-26T08:04:41.132Z,1000.58
2023-02-26T08:05:41.168Z,1000.40
2023-02-26T08:06:41.112Z,1000.41
2023-02-26T08:07:41.109Z,1000.45
2023-02-26T08:08:41.127Z,1000.48
2023-02-26T08:09:41.104Z,1000.57
2023-02-26T08:10:42.129Z,1000.57
2023-02-26T08:11:41.057Z,1000.60
2023-02-26T08:12:41.065Z,1000.56
2023-02-26T08:13:41.028Z,1000.57
2023-02-26T08:14:41.038Z,1000.58
2023-02-26T08:15:41.060Z,1000.66
2023-02-26T08:16:41.031Z,1000.70
2023-02-26T08:17:41.015Z,1000.88
2023-02-26T08:18:40.972Z,1000.77
2023-02-26T08:19:40.969Z,1000.67
2023-02-26T08:20:40.957Z,1000.71
2023-02-26T08:21:40.990Z,1000.70
2023-02-26T08:22:40.954Z,1000.78
2023-02-26T08:23:40.922Z,1000.73
2023-02-26T08:24:40.921Z,1000.70
2023-02-26T08:25:40.895Z,1000.76
2023-02-26T08:26:40.894Z,1000.63
2023-02-26T08:27:40.930Z,1000.67
2023-02-26T08:28:40.873Z,1000.74
2023-02-26T08:29:40.856Z,1000.71
2023-02-26T08:30:40.908Z,1000.74
2023-02-26T08:31:41.020Z,1000.74
2023-02-26T08:32:40.861Z,1000.80
2023-02-26T08:33:40.828Z,1000.76
2023-02-26T08:34:40.805Z,1000.95
2023-02-26T08:35:40.793Z,1000.87
2023-02-26T08:36:40.789Z,1000.77
2023-02-26T08:37:40.798Z,1000.88
2023-02-26T08:38:40.748Z,1000.88
2023-02-26T08:39:40.822Z,1000.92
2023-02-26T08:40:40.731Z,1000.92
2023-02-26T08:41:40.721Z,1000.93
2023-02-26T08:42:40.712Z,1000.97
2023-02-26T08:43:40.719Z,1001.12
2023-02-26T08:44:40.710Z,1000.95
2023-02-26T08:45:40.737Z,1000.98
2023-02-26T08:46:40.740Z,1001.06
2023-02-26T08:47:53.879Z,1001.03
2023-02-26T08:48:41.665Z,1001.00
2023-02-26T08:49:40.632Z,1001.07
2023-02-26T08:50:40.630Z,1000.99
2023-02-26T08:51:40.684Z,1001.05
2023-02-26T08:52:40.602Z,1001.07
2023-02-26T08:53:40.594Z,1001.10
2023-02-26T08:54:40.585Z,1001.08
2023-02-26T08:55:40.566Z,1000.98
2023-02-26T08:56:40.572Z,1001.05
2023-02-26T08:57:40.576Z,1001.08
2023-02-26T08:58:40.554Z,1001.04
2023-02-26T08:59:40.529Z,1001.03
2023-02-26T09:00:40.514Z,1001.10
2023-02-26T09:01:40.537Z,1001.08
2023-02-26T09:02:40.513Z,1001.06
2023-02-26T09:03:40.494Z,1001.05
2023-02-26T09:04:40.566Z,1001.09
2023-02-26T09:05:40.477Z,1000.97
2023-02-26T09:06:40.509Z,1001.09
2023-02-26T09:07:40.446Z,1001.04
2023-02-26T09:08:40.458Z,1001.08
2023-02-26T09:09:40.407Z,1001.03
2023-02-26T09:10:41.139Z,1001.10
2023-02-26T09:11:40.444Z,1001.25
2023-02-26T09:12:40.378Z,1001.22
2023-02-26T09:13:40.365Z,1001.19
2023-02-26T09:14:40.399Z,1001.18
2023-02-26T09:15:40.359Z,1001.12
2023-02-26T09:16:40.432Z,1001.19
2023-02-26T09:17:40.347Z,1001.19
2023-02-26T09:18:40.306Z,1001.22
2023-02-26T09:19:40.323Z,1001.24
2023-02-26T09:20:40.303Z,1001.21
2023-02-26T09:21:40.306Z,1001.23
2023-02-26T09:22:40.282Z,1001.27
2023-02-26T09:23:40.257Z,1001.32
2023-02-26T09:24:40.419Z,1001.30
2023-02-26T09:25:40.244Z,1001.30
2023-02-26T09:26:40.246Z,1001.42
2023-02-26T09:27:40.231Z,1001.46
2023-02-26T09:28:40.228Z,1001.42
2023-02-26T09:29:40.207Z,1001.53
2023-02-26T09:30:40.175Z,1001.48
2023-02-26T09:31:40.313Z,1001.40
2023-02-26T09:32:40.234Z,1001.45
2023-02-26T09:33:40.139Z,1001.47
2023-02-26T09:34:40.139Z,1001.47
2023-02-26T09:35:40.118Z,1001.55
2023-02-26T09:36:40.101Z,1001.62
2023-02-26T09:37:40.145Z,1001.53
2023-02-26T09:38:40.130Z,1001.53
2023-02-26T09:39:40.085Z,1001.57
2023-02-26T09:40:40.078Z,1001.62
2023-02-26T09:41:40.108Z,1001.58
2023-02-26T09:42:40.099Z,1001.49
2023-02-26T09:43:40.047Z,1001.52
2023-02-26T09:44:40.023Z,1001.54
2023-02-26T09:45:40.080Z,1001.58
2023-02-26T09:46:40.042Z,1001.65
2023-02-26T09:47:40.006Z,1001.55
2023-02-26T09:48:39.987Z,1001.62
2023-02-26T09:49:39.981Z,1001.78
2023-02-26T09:50:39.994Z,1001.57
2023-02-26T09:51:39.982Z,1001.65
2023-02-26T09:52:39.944Z,1001.58
2023-02-26T09:53:39.919Z,1001.72
2023-02-26T09:54:39.985Z,1001.70
2023-02-26T09:55:39.954Z,1001.67
2023-02-26T09:56:40.011Z,1001.76
2023-02-26T09:57:39.898Z,1001.67
2023-02-26T09:58:39.864Z,1001.68
2023-02-26T09:59:39.846Z,1001.73
2023-02-26T10:00:39.998Z,1001.74
2023-02-26T10:01:39.870Z,1001.75
2023-02-26T10:02:39.953Z,1001.73
2023-02-26T10:03:39.832Z,1001.78
2023-02-26T10:04:39.794Z,1001.75
2023-02-26T10:05:39.839Z,1001.84
2023-02-26T10:06:39.785Z,1001.77
2023-02-26T10:07:39.759Z,1001.76
2023-02-26T10:08:39.792Z,1001.80
2023-02-26T10:09:39.749Z,1001.86
2023-02-26T10:10:39.731Z,1001.72
2023-02-26T10:11:39.745Z,1001.83
2023-02-26T10:12:39.707Z,1001.90
2023-02-26T10:13:56.073Z,1001.84
2023-02-26T10:14:40.706Z,1001.92
2023-02-26T10:15:39.668Z,1001.87
2023-02-26T10:16:39.663Z,1001.93
2023-02-26T10:17:39.713Z,1001.90
2023-02-26T10:18:39.677Z,1001.88
2023-02-26T10:19:39.649Z,1001.88
2023-02-26T10:20:39.732Z,1001.88
2023-02-26T10:21:39.643Z,1001.94
2023-02-26T10:22:39.599Z,1001.92
2023-02-26T10:23:39.962Z,1001.95
2023-02-26T10:24:39.592Z,1001.98
2023-02-26T10:25:39.552Z,1002.01
2023-02-26T10:26:39.538Z,1001.96
2023-02-26T10:27:39.527Z,1002.10
2023-02-26T10:28:39.550Z,1002.08
2023-02-26T10:29:39.496Z,1002.08
2023-02-26T10:30:39.502Z,1002.02
2023-02-26T10:31:39.476Z,1002.01
2023-02-26T10:32:39.620Z,1002.10
2023-02-26T10:33:39.447Z,1002.13
2023-02-26T10:34:39.504Z,1002.08
2023-02-26T10:35:39.423Z,1002.04
2023-02-26T10:36:39.414Z,1002.13
2023-02-26T10:37:39.427Z,1002.13
2023-02-26T10:38:39.404Z,1002.17
2023-02-26T10:39:39.408Z,1002.09
2023-02-26T10:40:39.411Z,1002.09
2023-02-26T10:41:39.359Z,1002.18
2023-02-26T10:42:39.352Z,1002.20
2023-02-26T10:43:39.331Z,1002.28
2023-02-26T10:44:39.322Z,1002.25
2023-02-26T10:45:39.338Z,1002.21
2023-02-26T10:46:39.324Z,1002.30
2023-02-26T10:47:39.313Z,1002.27
2023-02-26T10:48:39.279Z,1002.25
2023-02-26T10:49:39.272Z,1002.21
2023-02-26T10:50:39.243Z,1002.24
2023-02-26T10:51:39.260Z,1002.28
2023-02-26T10:52:39.255Z,1002.32
2023-02-26T10:53:40.673Z,1002.29
2023-02-26T10:54:39.205Z,1002.35
2023-02-26T10:55:39.197Z,1002.23
2023-02-26T10:56:39.183Z,1002.30
2023-02-26T10:57:39.185Z,1002.29
2023-02-26T10:58:39.182Z,1002.33
2023-02-26T10:59:39.155Z,1002.31
2023-02-26T11:00:39.161Z,1002.30
2023-02-26T11:01:39.171Z,1002.32
2023-02-26T11:02:39.221Z,1002.32
2023-02-26T11:03:39.110Z,1002.32
2023-02-26T11:04:39.115Z,1002.29
2023-02-26T11:05:39.091Z,1002.35
2023-02-26T11:06:39.071Z,1002.30
2023-02-26T11:07:39.083Z,1002.29
2023-02-26T11:08:39.122Z,1002.39
2023-02-26T11:09:39.058Z,1002.39
2023-02-26T11:10:39.049Z,1002.31
2023-02-26T11:11:39.022Z,1002.38
2023-02-26T11:12:39.012Z,1002.25
2023-02-26T11:13:38.995Z,1002.26
2023-02-26T11:14:39.018Z,1002.27
2023-02-26T11:15:39.048Z,1002.34
2023-02-26T11:16:38.996Z,1002.29
2023-02-26T11:17:38.952Z,1002.35
2023-02-26T11:18:38.958Z,1002.39
2023-02-26T11:19:38.950Z,1002.30
2023-02-26T11:20:38.947Z,1002.30
2023-02-26T11:21:38.923Z,1002.44
2023-02-26T11:22:38.894Z,1002.41
2023-02-26T11:23:38.932Z,1002.38
2023-02-26T11:24:38.923Z,1002.41
2023-02-26T11:25:38.864Z,1002.35
2023-02-26T11:26:38.859Z,1002.33
2023-02-26T11:27:38.867Z,1002.31
2023-02-26T11:28:38.833Z,1002.30
2023-02-26T11:29:38.851Z,1002.37
2023-02-26T11:30:38.890Z,1002.25
2023-02-26T11:31:41.019Z,1002.29
2023-02-26T11:32:38.842Z,1002.42
2023-02-26T11:33:38.804Z,1002.35
2023-02-26T11:34:38.770Z,1002.35
2023-02-26T11:35:38.775Z,1002.30
2023-02-26T11:36:38.754Z,1002.31
2023-02-26T11:37:38.738Z,1002.36
2023-02-26T11:38:38.736Z,1002.41
2023-02-26T11:39:38.822Z,1002.40
2023-02-26T11:40:38.723Z,1002.36
2023-02-26T11:41:38.702Z,1002.42
2023-02-26T11:42:38.665Z,1002.40
2023-02-26T11:43:38.689Z,1002.41
2023-02-26T11:44:38.660Z,1002.33
2023-02-26T11:45:38.686Z,1002.32
2023-02-26T11:46:38.628Z,1002.37
2023-02-26T11:47:38.638Z,1002.37
2023-02-26T11:48:38.608Z,1002.36
2023-02-26T11:49:38.595Z,1002.42
2023-02-26T11:50:38.586Z,1002.31
2023-02-26T11:51:38.587Z,1002.34
2023-02-26T11:52:38.573Z,1002.32
2023-02-26T11:53:38.560Z,1002.31
2023-02-26T11:54:38.604Z,1002.35
2023-02-26T11:55:38.544Z,1002.25
2023-02-26T11:56:38.553Z,1002.30
2023-02-26T11:57:38.496Z,1002.29
2023-02-26T11:58:38.669Z,1002.26
2023-02-26T11:59:38.475Z,1002.27
2023-02-26T12:00:38.487Z,1002.23
2023-02-26T12:01:38.467Z,1002.30
2023-02-26T12:02:38.511Z,1002.32
2023-02-26T12:03:38.463Z,1002.25
2023-02-26T12:04:38.435Z,1002.24
2023-02-26T12:05:38.418Z,1002.21
2023-02-26T12:06:38.418Z,1002.28
2023-02-26T12:07:38.427Z,1002.26
2023-02-26T12:08:38.533Z,1002.25
2023-02-26T12:09:38.401Z,1002.25
2023-02-26T12:10:38.359Z,1002.25
2023-02-26T12:11:38.398Z,1002.20
2023-02-26T12:12:38.333Z,1002.15
2023-02-26T12:13:38.365Z,1002.18
2023-02-26T12:14:38.321Z,1002.18
2023-02-26T12:15:38.334Z,1002.15
2023-02-26T12:16:38.292Z,1002.30
2023-02-26T12:17:38.303Z,1002.30
2023-02-26T12:18:38.271Z,1002.21
2023-02-26T12:19:38.390Z,1002.20